sensor_id;sensor_type;location;lat;lon;timestamp;temperature;humidity
14735;DHT22;7458;49.002;8.472;2023-03-15T00:02:06;4.80;99.90
14735;DHT22;7458;49.002;8.472;2023-03-15T00:04:31;4.80;99.90
14735;DHT22;7458;49.002;8.472;2023-03-15T00:06:57;4.80;99.90
14735;DHT22;7458;49.002;8.472;2023-03-15T00:09:23;4.70;99.90
14735;DHT22;7458;49.002;8.472;2023-03-15T00:11:50;4.80;99.90
14735;DHT22;7458;49.002;8.472;2023-03-15T00:14:19;4.80;99.90
14735;DHT22;7458;49.002;8.472;2023-03-15T00:16:45;4.80;99.90
14735;DHT22;7458;49.002;8.472;2023-03-15T00:19:12;4.80;99.90
14735;DHT22;7458;49.002;8.472;2023-03-15T00:21:38;4.80;99.90
14735;DHT22;7458;49.002;8.472;2023-03-15T00:24:10;4.80;99.90
14735;DHT22;7458;49.002;8.472;2023-03-15T00:26:37;4.70;99.90
14735;DHT22;7458;49.002;8.472;2023-03-15T00:29:04;4.70;99.90
14735;DHT22;7458;49.002;8.472;2023-03-15T00:31:30;4.70;99.90
14735;DHT22;7458;49.002;8.472;2023-03-15T00:33:56;4.80;99.90
14735;DHT22;7458;49.002;8.472;2023-03-15T00:36:23;4.70;99.90
14735;DHT22;7458;49.002;8.472;2023-03-15T00:38:51;4.70;99.90
14735;DHT22;7458;49.002;8.472;2023-03-15T00:41:19;4.70;99.90
14735;DHT22;7458;49.002;8.472;2023-03-15T00:43:47;4.60;99.90
14735;DHT22;7458;49.002;8.472;2023-03-15T00:46:13;4.50;99.90
14735;DHT22;7458;49.002;8.472;2023-03-15T00:48:40;4.40;99.90
14735;DHT22;7458;49.002;8.472;2023-03-15T00:51:07;4.60;99.90
14735;DHT22;7458;49.002;8.472;2023-03-15T00:53:38;4.30;99.90
14735;DHT22;7458;49.002;8.472;2023-03-15T00:56:11;4.40;99.90
14735;DHT22;7458;49.002;8.472;2023-03-15T00:58:39;4.30;99.90
14735;DHT22;7458;49.002;8.472;2023-03-15T01:01:07;4.20;99.90
14735;DHT22;7458;49.002;8.472;2023-03-15T01:03:35;4.20;99.90
14735;DHT22;7458;49.002;8.472;2023-03-15T01:06:06;4.20;99.90
14735;DHT22;7458;49.002;8.472;2023-03-15T01:08:33;4.20;99.90
14735;DHT22;7458;49.002;8.472;2023-03-15T01:11:04;4.20;99.90
14735;DHT22;7458;49.002;8.472;2023-03-15T01:13:32;4.20;99.90
14735;DHT22;7458;49.002;8.472;2023-03-15T01:15:58;4.20;99.90
14735;DHT22;7458;49.002;8.472;2023-03-15T01:18:24;4.20;99.90
14735;DHT22;7458;49.002;8.472;2023-03-15T01:20:50;4.10;99.90
14735;DHT22;7458;49.002;8.472;2023-03-15T01:23:16;4.10;99.90
14735;DHT22;7458;49.002;8.472;2023-03-15T01:25:41;4.10;99.90
14735;DHT22;7458;49.002;8.472;2023-03-15T01:28:07;4.00;99.90
14735;DHT22;7458;49.002;8.472;2023-03-15T01:30:33;4.00;99.90
14735;DHT22;7458;49.002;8.472;2023-03-15T01:32:59;3.90;99.90
14735;DHT22;7458;49.002;8.472;2023-03-15T01:35:24;3.90;99.90
14735;DHT22;7458;49.002;8.472;2023-03-15T01:37:51;3.90;99.90
14735;DHT22;7458;49.002;8.472;2023-03-15T01:40:17;3.80;99.90
14735;DHT22;7458;49.002;8.472;2023-03-15T01:45:55;3.90;99.90
14735;DHT22;7458;49.002;8.472;2023-03-15T01:48:34;3.90;99.90
14735;DHT22;7458;49.002;8.472;2023-03-15T01:51:20;3.90;99.90
14735;DHT22;7458;49.002;8.472;2023-03-15T01:56:59;3.90;99.90
14735;DHT22;7458;49.002;8.472;2023-03-15T01:59:36;3.90;99.90
14735;DHT22;7458;49.002;8.472;2023-03-15T02:02:05;3.80;99.90
14735;DHT22;7458;49.002;8.472;2023-03-15T02:04:39;3.80;99.90
14735;DHT22;7458;49.002;8.472;2023-03-15T02:07:14;3.80;99.90
14735;DHT22;7458;49.002;8.472;2023-03-15T02:10:00;3.90;99.90
14735;DHT22;7458;49.002;8.472;2023-03-15T02:12:34;3.70;99.90
14735;DHT22;7458;49.002;8.472;2023-03-15T02:15:05;3.70;99.90
14735;DHT22;7458;49.002;8.472;2023-03-15T02:17:41;3.70;99.90
14735;DHT22;7458;49.002;8.472;2023-03-15T02:28:51;3.60;99.90
14735;DHT22;7458;49.002;8.472;2023-03-15T02:31:18;3.60;99.90
14735;DHT22;7458;49.002;8.472;2023-03-15T02:33:49;3.50;99.90
14735;DHT22;7458;49.002;8.472;2023-03-15T02:36:27;3.50;99.90
14735;DHT22;7458;49.002;8.472;2023-03-15T02:38:55;3.60;99.90
14735;DHT22;7458;49.002;8.472;2023-03-15T02:41:30;3.40;99.90
14735;DHT22;7458;49.002;8.472;2023-03-15T02:44:22;3.30;99.90
14735;DHT22;7458;49.002;8.472;2023-03-15T02:46:52;3.30;99.90
14735;DHT22;7458;49.002;8.472;2023-03-15T02:49:25;3.30;99.90
14735;DHT22;7458;49.002;8.472;2023-03-15T02:51:55;3.30;99.90
14735;DHT22;7458;49.002;8.472;2023-03-15T02:54:21;3.20;99.90
14735;DHT22;7458;49.002;8.472;2023-03-15T02:56:47;3.10;99.90
14735;DHT22;7458;49.002;8.472;2023-03-15T02:59:12;3.20;99.90
14735;DHT22;7458;49.002;8.472;2023-03-15T03:01:38;3.10;99.90
14735;DHT22;7458;49.002;8.472;2023-03-15T03:04:05;3.50;99.90
14735;DHT22;7458;49.002;8.472;2023-03-15T03:06:30;3.20;99.90
14735;DHT22;7458;49.002;8.472;2023-03-15T03:08:56;3.20;99.90
14735;DHT22;7458;49.002;8.472;2023-03-15T03:11:22;3.20;99.90
14735;DHT22;7458;49.002;8.472;2023-03-15T03:13:48;3.40;99.90
14735;DHT22;7458;49.002;8.472;2023-03-15T03:16:14;3.20;99.90
14735;DHT22;7458;49.002;8.472;2023-03-15T03:18:40;3.20;99.90
14735;DHT22;7458;49.002;8.472;2023-03-15T03:21:07;3.20;99.90
14735;DHT22;7458;49.002;8.472;2023-03-15T03:23:33;3.10;99.90
14735;DHT22;7458;49.002;8.472;2023-03-15T03:26:01;3.10;99.90
14735;DHT22;7458;49.002;8.472;2023-03-15T03:28:30;3.10;99.90
14735;DHT22;7458;49.002;8.472;2023-03-15T03:30:57;3.10;99.90
14735;DHT22;7458;49.002;8.472;2023-03-15T03:33:23;3.10;99.90
14735;DHT22;7458;49.002;8.472;2023-03-15T03:35:49;3.10;99.90
14735;DHT22;7458;49.002;8.472;2023-03-15T03:38:15;3.00;99.90
14735;DHT22;7458;49.002;8.472;2023-03-15T03:40:41;3.00;99.90
14735;DHT22;7458;49.002;8.472;2023-03-15T03:43:08;3.00;99.90
14735;DHT22;7458;49.002;8.472;2023-03-15T03:45:34;3.00;99.90
14735;DHT22;7458;49.002;8.472;2023-03-15T03:48:00;3.00;99.90
14735;DHT22;7458;49.002;8.472;2023-03-15T03:50:26;2.90;99.90
14735;DHT22;7458;49.002;8.472;2023-03-15T03:52:52;2.90;99.90
14735;DHT22;7458;49.002;8.472;2023-03-15T03:55:18;2.90;99.90
14735;DHT22;7458;49.002;8.472;2023-03-15T03:57:43;2.90;99.90
14735;DHT22;7458;49.002;8.472;2023-03-15T04:00:12;2.80;99.90
14735;DHT22;7458;49.002;8.472;2023-03-15T04:02:39;2.80;99.90
14735;DHT22;7458;49.002;8.472;2023-03-15T04:05:09;2.80;99.90
14735;DHT22;7458;49.002;8.472;2023-03-15T04:07:36;3.30;99.90
14735;DHT22;7458;49.002;8.472;2023-03-15T04:10:03;2.90;99.90
14735;DHT22;7458;49.002;8.472;2023-03-15T04:12:30;2.90;99.90
14735;DHT22;7458;49.002;8.472;2023-03-15T04:14:56;2.90;99.90
14735;DHT22;7458;49.002;8.472;2023-03-15T04:17:21;2.80;99.90
14735;DHT22;7458;49.002;8.472;2023-03-15T04:19:47;2.80;99.90
14735;DHT22;7458;49.002;8.472;2023-03-15T04:22:13;2.80;99.90
14735;DHT22;7458;49.002;8.472;2023-03-15T04:24:42;2.80;99.90
14735;DHT22;7458;49.002;8.472;2023-03-15T04:27:08;2.80;99.90
14735;DHT22;7458;49.002;8.472;2023-03-15T04:29:40;2.70;99.90
14735;DHT22;7458;49.002;8.472;2023-03-15T04:32:06;2.70;99.90
14735;DHT22;7458;49.002;8.472;2023-03-15T04:34:32;2.70;99.90
14735;DHT22;7458;49.002;8.472;2023-03-15T04:37:04;2.70;99.90
14735;DHT22;7458;49.002;8.472;2023-03-15T04:39:30;2.70;99.90
14735;DHT22;7458;49.002;8.472;2023-03-15T04:41:56;2.80;99.90
14735;DHT22;7458;49.002;8.472;2023-03-15T04:44:22;2.80;99.90
14735;DHT22;7458;49.002;8.472;2023-03-15T04:46:52;2.80;99.90
14735;DHT22;7458;49.002;8.472;2023-03-15T04:49:18;2.70;99.90
14735;DHT22;7458;49.002;8.472;2023-03-15T04:51:45;2.60;99.90
14735;DHT22;7458;49.002;8.472;2023-03-15T04:54:10;2.60;99.90
14735;DHT22;7458;49.002;8.472;2023-03-15T04:56:36;3.10;99.90
14735;DHT22;7458;49.002;8.472;2023-03-15T04:59:02;2.70;99.90
14735;DHT22;7458;49.002;8.472;2023-03-15T05:01:30;2.70;99.90
14735;DHT22;7458;49.002;8.472;2023-03-15T05:03:57;2.70;99.90
14735;DHT22;7458;49.002;8.472;2023-03-15T05:06:23;2.90;99.90
14735;DHT22;7458;49.002;8.472;2023-03-15T05:08:50;2.70;99.90
14735;DHT22;7458;49.002;8.472;2023-03-15T05:11:15;2.70;99.90
14735;DHT22;7458;49.002;8.472;2023-03-15T05:13:41;2.70;99.90
14735;DHT22;7458;49.002;8.472;2023-03-15T05:16:07;2.60;99.90
14735;DHT22;7458;49.002;8.472;2023-03-15T05:18:33;2.70;99.90
14735;DHT22;7458;49.002;8.472;2023-03-15T05:20:58;2.60;99.90
14735;DHT22;7458;49.002;8.472;2023-03-15T05:23:24;2.60;99.90
14735;DHT22;7458;49.002;8.472;2023-03-15T05:25:54;2.60;99.90
14735;DHT22;7458;49.002;8.472;2023-03-15T05:28:22;2.60;99.90
14735;DHT22;7458;49.002;8.472;2023-03-15T05:30:50;2.60;99.90
14735;DHT22;7458;49.002;8.472;2023-03-15T05:33:16;2.60;99.90
14735;DHT22;7458;49.002;8.472;2023-03-15T05:35:43;2.60;99.90
14735;DHT22;7458;49.002;8.472;2023-03-15T05:38:12;2.60;99.90
14735;DHT22;7458;49.002;8.472;2023-03-15T05:40:48;2.60;99.90
14735;DHT22;7458;49.002;8.472;2023-03-15T05:43:13;2.80;99.90
14735;DHT22;7458;49.002;8.472;2023-03-15T05:45:39;2.60;99.90
14735;DHT22;7458;49.002;8.472;2023-03-15T05:48:05;2.60;99.90
14735;DHT22;7458;49.002;8.472;2023-03-15T05:50:32;2.70;99.90
14735;DHT22;7458;49.002;8.472;2023-03-15T05:52:58;2.70;99.90
14735;DHT22;7458;49.002;8.472;2023-03-15T05:55:24;2.70;99.90
14735;DHT22;7458;49.002;8.472;2023-03-15T05:57:50;2.80;99.90
14735;DHT22;7458;49.002;8.472;2023-03-15T06:00:17;2.80;99.90
14735;DHT22;7458;49.002;8.472;2023-03-15T06:02:44;2.80;99.90
14735;DHT22;7458;49.002;8.472;2023-03-15T06:05:11;3.00;99.90
14735;DHT22;7458;49.002;8.472;2023-03-15T06:07:37;3.00;99.90
14735;DHT22;7458;49.002;8.472;2023-03-15T06:10:04;3.00;99.90
14735;DHT22;7458;49.002;8.472;2023-03-15T06:12:30;3.30;99.90
14735;DHT22;7458;49.002;8.472;2023-03-15T06:14:56;3.60;99.90
14735;DHT22;7458;49.002;8.472;2023-03-15T06:17:21;4.50;99.90
14735;DHT22;7458;49.002;8.472;2023-03-15T06:19:47;7.30;99.90
14735;DHT22;7458;49.002;8.472;2023-03-15T06:22:13;7.10;99.90
14735;DHT22;7458;49.002;8.472;2023-03-15T06:24:38;7.90;99.90
14735;DHT22;7458;49.002;8.472;2023-03-15T06:27:04;8.50;99.90
14735;DHT22;7458;49.002;8.472;2023-03-15T06:29:30;9.50;99.90
14735;DHT22;7458;49.002;8.472;2023-03-15T06:31:56;10.40;99.90
14735;DHT22;7458;49.002;8.472;2023-03-15T06:34:21;11.20;99.90
14735;DHT22;7458;49.002;8.472;2023-03-15T06:36:47;11.60;99.10
14735;DHT22;7458;49.002;8.472;2023-03-15T06:39:17;12.30;98.40
14735;DHT22;7458;49.002;8.472;2023-03-15T06:41:43;12.80;94.70
14735;DHT22;7458;49.002;8.472;2023-03-15T06:44:09;13.20;92.80
14735;DHT22;7458;49.002;8.472;2023-03-15T06:46:35;13.80;90.40
14735;DHT22;7458;49.002;8.472;2023-03-15T06:49:02;14.20;86.00
14735;DHT22;7458;49.002;8.472;2023-03-15T06:51:28;14.30;81.80
14735;DHT22;7458;49.002;8.472;2023-03-15T06:53:54;14.30;81.50
14735;DHT22;7458;49.002;8.472;2023-03-15T06:56:20;14.70;80.40
14735;DHT22;7458;49.002;8.472;2023-03-15T06:58:46;14.70;77.40
14735;DHT22;7458;49.002;8.472;2023-03-15T07:01:13;14.70;79.50
14735;DHT22;7458;49.002;8.472;2023-03-15T07:03:40;14.40;75.90
14735;DHT22;7458;49.002;8.472;2023-03-15T07:06:06;13.20;74.70
14735;DHT22;7458;49.002;8.472;2023-03-15T07:08:33;13.20;80.60
14735;DHT22;7458;49.002;8.472;2023-03-15T07:11:01;13.60;77.50
14735;DHT22;7458;49.002;8.472;2023-03-15T07:13:28;14.20;76.70
14735;DHT22;7458;49.002;8.472;2023-03-15T07:15:54;14.50;75.30
14735;DHT22;7458;49.002;8.472;2023-03-15T07:18:21;14.20;72.20
14735;DHT22;7458;49.002;8.472;2023-03-15T07:20:55;13.90;73.00
14735;DHT22;7458;49.002;8.472;2023-03-15T07:23:22;13.60;73.50
14735;DHT22;7458;49.002;8.472;2023-03-15T07:25:47;13.60;76.40
14735;DHT22;7458;49.002;8.472;2023-03-15T07:28:13;13.20;77.50
14735;DHT22;7458;49.002;8.472;2023-03-15T07:30:39;12.60;75.20
14735;DHT22;7458;49.002;8.472;2023-03-15T07:33:05;12.50;77.80
14735;DHT22;7458;49.002;8.472;2023-03-15T07:35:31;12.10;78.00
14735;DHT22;7458;49.002;8.472;2023-03-15T07:37:56;12.10;80.40
14735;DHT22;7458;49.002;8.472;2023-03-15T07:40:22;11.50;81.50
14735;DHT22;7458;49.002;8.472;2023-03-15T07:42:50;10.90;82.50
14735;DHT22;7458;49.002;8.472;2023-03-15T07:45:16;10.90;86.00
14735;DHT22;7458;49.002;8.472;2023-03-15T07:47:41;11.30;85.00
14735;DHT22;7458;49.002;8.472;2023-03-15T07:50:08;11.50;85.50
14735;DHT22;7458;49.002;8.472;2023-03-15T07:52:34;9.40;82.10
14735;DHT22;7458;49.002;8.472;2023-03-15T07:54:59;10.70;82.40
14735;DHT22;7458;49.002;8.472;2023-03-15T07:57:25;10.50;83.80
14735;DHT22;7458;49.002;8.472;2023-03-15T07:59:51;10.10;83.80
14735;DHT22;7458;49.002;8.472;2023-03-15T08:02:17;9.60;84.70
14735;DHT22;7458;49.002;8.472;2023-03-15T08:04:43;9.40;87.10
14735;DHT22;7458;49.002;8.472;2023-03-15T08:07:09;9.40;88.00
14735;DHT22;7458;49.002;8.472;2023-03-15T08:09:35;9.50;89.50
14735;DHT22;7458;49.002;8.472;2023-03-15T08:12:01;9.50;88.60
14735;DHT22;7458;49.002;8.472;2023-03-15T08:14:27;9.50;88.60
14735;DHT22;7458;49.002;8.472;2023-03-15T08:16:55;9.70;89.20
14735;DHT22;7458;49.002;8.472;2023-03-15T08:19:21;10.00;89.60
14735;DHT22;7458;49.002;8.472;2023-03-15T08:21:47;10.30;87.80
14735;DHT22;7458;49.002;8.472;2023-03-15T08:24:13;10.70;87.50
14735;DHT22;7458;49.002;8.472;2023-03-15T08:26:40;11.20;87.60
14735;DHT22;7458;49.002;8.472;2023-03-15T08:29:08;11.30;84.00
14735;DHT22;7458;49.002;8.472;2023-03-15T08:31:33;11.30;81.80
14735;DHT22;7458;49.002;8.472;2023-03-15T08:33:59;11.40;81.80
14735;DHT22;7458;49.002;8.472;2023-03-15T08:36:25;11.30;83.60
14735;DHT22;7458;49.002;8.472;2023-03-15T08:38:51;11.10;83.30
14735;DHT22;7458;49.002;8.472;2023-03-15T08:41:17;10.40;79.90
14735;DHT22;7458;49.002;8.472;2023-03-15T08:43:43;10.50;81.70
14735;DHT22;7458;49.002;8.472;2023-03-15T08:46:08;10.90;83.50
14735;DHT22;7458;49.002;8.472;2023-03-15T08:48:35;10.90;80.00
14735;DHT22;7458;49.002;8.472;2023-03-15T08:51:02;10.70;82.50
14735;DHT22;7458;49.002;8.472;2023-03-15T08:53:29;10.60;81.70
14735;DHT22;7458;49.002;8.472;2023-03-15T08:55:56;10.70;83.00
14735;DHT22;7458;49.002;8.472;2023-03-15T08:58:22;10.80;80.00
14735;DHT22;7458;49.002;8.472;2023-03-15T09:00:49;11.00;82.60
14735;DHT22;7458;49.002;8.472;2023-03-15T09:03:16;11.30;80.70
14735;DHT22;7458;49.002;8.472;2023-03-15T09:05:43;11.70;82.10
14735;DHT22;7458;49.002;8.472;2023-03-15T09:08:09;11.70;77.80
14735;DHT22;7458;49.002;8.472;2023-03-15T09:10:38;11.80;78.10
14735;DHT22;7458;49.002;8.472;2023-03-15T09:13:13;11.70;76.10
14735;DHT22;7458;49.002;8.472;2023-03-15T09:15:39;11.60;75.10
14735;DHT22;7458;49.002;8.472;2023-03-15T09:18:04;11.30;73.40
14735;DHT22;7458;49.002;8.472;2023-03-15T09:20:33;10.80;72.10
14735;DHT22;7458;49.002;8.472;2023-03-15T09:23:05;10.60;73.30
14735;DHT22;7458;49.002;8.472;2023-03-15T09:25:34;10.50;73.60
14735;DHT22;7458;49.002;8.472;2023-03-15T09:28:02;10.30;71.30
14735;DHT22;7458;49.002;8.472;2023-03-15T09:30:42;10.20;71.80
14735;DHT22;7458;49.002;8.472;2023-03-15T09:33:08;10.50;72.80
14735;DHT22;7458;49.002;8.472;2023-03-15T09:35:37;10.60;71.70
14735;DHT22;7458;49.002;8.472;2023-03-15T09:38:03;10.60;72.70
14735;DHT22;7458;49.002;8.472;2023-03-15T09:40:32;11.10;74.50
14735;DHT22;7458;49.002;8.472;2023-03-15T09:52:39;12.80;64.00
14735;DHT22;7458;49.002;8.472;2023-03-15T09:57:52;12.20;64.60
14735;DHT22;7458;49.002;8.472;2023-03-15T10:00:43;11.70;65.30
14735;DHT22;7458;49.002;8.472;2023-03-15T10:06:46;11.20;67.00
14735;DHT22;7458;49.002;8.472;2023-03-15T10:09:21;11.20;67.60
14735;DHT22;7458;49.002;8.472;2023-03-15T10:12:13;11.20;69.40
14735;DHT22;7458;49.002;8.472;2023-03-15T10:20:28;11.70;67.50
14735;DHT22;7458;49.002;8.472;2023-03-15T10:23:21;11.50;67.10
14735;DHT22;7458;49.002;8.472;2023-03-15T10:25:53;11.40;66.60
14735;DHT22;7458;49.002;8.472;2023-03-15T10:30:59;11.50;67.10
14735;DHT22;7458;49.002;8.472;2023-03-15T10:33:39;11.30;65.70
14735;DHT22;7458;49.002;8.472;2023-03-15T10:36:16;11.10;67.40
14735;DHT22;7458;49.002;8.472;2023-03-15T10:38:44;11.00;68.70
14735;DHT22;7458;49.002;8.472;2023-03-15T10:41:12;10.80;67.50
14735;DHT22;7458;49.002;8.472;2023-03-15T10:44:01;10.90;69.10
14735;DHT22;7458;49.002;8.472;2023-03-15T10:46:29;10.70;69.40
14735;DHT22;7458;49.002;8.472;2023-03-15T10:48:58;10.50;68.70
14735;DHT22;7458;49.002;8.472;2023-03-15T10:51:47;10.30;66.20
14735;DHT22;7458;49.002;8.472;2023-03-15T10:54:22;10.10;63.50
14735;DHT22;7458;49.002;8.472;2023-03-15T10:57:14;10.10;65.00
14735;DHT22;7458;49.002;8.472;2023-03-15T11:00:01;10.10;66.50
14735;DHT22;7458;49.002;8.472;2023-03-15T11:02:34;9.90;67.40
14735;DHT22;7458;49.002;8.472;2023-03-15T11:05:13;9.80;66.00
14735;DHT22;7458;49.002;8.472;2023-03-15T11:07:57;9.80;69.70
14735;DHT22;7458;49.002;8.472;2023-03-15T11:10:27;9.70;70.40
14735;DHT22;7458;49.002;8.472;2023-03-15T11:13:21;9.70;71.80
14735;DHT22;7458;49.002;8.472;2023-03-15T11:18:59;9.40;77.00
14735;DHT22;7458;49.002;8.472;2023-03-15T11:21:33;9.10;81.80
14735;DHT22;7458;49.002;8.472;2023-03-15T11:24:02;8.80;87.60
14735;DHT22;7458;49.002;8.472;2023-03-15T11:26:35;8.60;89.70
14735;DHT22;7458;49.002;8.472;2023-03-15T11:29:20;8.70;91.00
14735;DHT22;7458;49.002;8.472;2023-03-15T11:31:46;8.50;91.70
14735;DHT22;7458;49.002;8.472;2023-03-15T11:34:22;8.30;93.10
14735;DHT22;7458;49.002;8.472;2023-03-15T11:37:13;8.30;94.50
14735;DHT22;7458;49.002;8.472;2023-03-15T11:40:00;8.30;95.50
14735;DHT22;7458;49.002;8.472;2023-03-15T11:42:32;8.30;96.80
14735;DHT22;7458;49.002;8.472;2023-03-15T11:45:17;8.40;97.90
14735;DHT22;7458;49.002;8.472;2023-03-15T11:47:53;8.50;98.00
14735;DHT22;7458;49.002;8.472;2023-03-15T11:50:22;8.60;98.50
14735;DHT22;7458;49.002;8.472;2023-03-15T11:52:51;8.60;99.30
14735;DHT22;7458;49.002;8.472;2023-03-15T11:55:26;8.50;99.20
14735;DHT22;7458;49.002;8.472;2023-03-15T11:57:54;8.50;98.90
14735;DHT22;7458;49.002;8.472;2023-03-15T12:08:42;8.50;99.90
14735;DHT22;7458;49.002;8.472;2023-03-15T12:16:22;9.30;99.90
14735;DHT22;7458;49.002;8.472;2023-03-15T12:18:52;9.30;99.90
14735;DHT22;7458;49.002;8.472;2023-03-15T12:21:32;9.40;99.90
14735;DHT22;7458;49.002;8.472;2023-03-15T12:24:06;9.50;99.90
14735;DHT22;7458;49.002;8.472;2023-03-15T12:26:42;9.60;99.90
14735;DHT22;7458;49.002;8.472;2023-03-15T12:29:22;9.80;99.90
14735;DHT22;7458;49.002;8.472;2023-03-15T12:34:52;10.10;99.90
14735;DHT22;7458;49.002;8.472;2023-03-15T12:37:38;10.20;99.90
14735;DHT22;7458;49.002;8.472;2023-03-15T12:56:24;9.50;99.90
14735;DHT22;7458;49.002;8.472;2023-03-15T12:59:18;9.30;99.90
14735;DHT22;7458;49.002;8.472;2023-03-15T13:01:51;9.30;99.90
14735;DHT22;7458;49.002;8.472;2023-03-15T13:04:17;9.40;99.90
14735;DHT22;7458;49.002;8.472;2023-03-15T13:07:15;9.40;99.90
14735;DHT22;7458;49.002;8.472;2023-03-15T13:13:48;9.90;99.90
14735;DHT22;7458;49.002;8.472;2023-03-15T13:19:23;10.20;99.90
14735;DHT22;7458;49.002;8.472;2023-03-15T13:24:36;10.10;99.90
14735;DHT22;7458;49.002;8.472;2023-03-15T13:36:04;9.60;99.90
14735;DHT22;7458;49.002;8.472;2023-03-15T13:38:42;9.50;99.90
14735;DHT22;7458;49.002;8.472;2023-03-15T13:41:29;9.40;99.90
14735;DHT22;7458;49.002;8.472;2023-03-15T13:43:59;9.30;99.90
14735;DHT22;7458;49.002;8.472;2023-03-15T13:46:29;9.30;99.90
14735;DHT22;7458;49.002;8.472;2023-03-15T13:48:55;9.20;99.90
14735;DHT22;7458;49.002;8.472;2023-03-15T13:57:01;9.10;99.90
14735;DHT22;7458;49.002;8.472;2023-03-15T13:59:58;9.20;99.90
14735;DHT22;7458;49.002;8.472;2023-03-15T14:05:06;9.30;99.90
14735;DHT22;7458;49.002;8.472;2023-03-15T14:07:40;9.40;99.90
14735;DHT22;7458;49.002;8.472;2023-03-15T14:12:47;9.40;99.90
14735;DHT22;7458;49.002;8.472;2023-03-15T14:15:40;9.40;99.90
14735;DHT22;7458;49.002;8.472;2023-03-15T14:20:41;9.10;99.90
14735;DHT22;7458;49.002;8.472;2023-03-15T14:23:14;9.00;99.90
14735;DHT22;7458;49.002;8.472;2023-03-15T14:25:42;9.00;99.90
14735;DHT22;7458;49.002;8.472;2023-03-15T14:28:15;9.00;99.90
14735;DHT22;7458;49.002;8.472;2023-03-15T14:30:42;9.00;99.90
14735;DHT22;7458;49.002;8.472;2023-03-15T14:33:38;9.00;99.90
14735;DHT22;7458;49.002;8.472;2023-03-15T14:36:19;9.10;99.90
14735;DHT22;7458;49.002;8.472;2023-03-15T14:38:56;9.20;99.90
14735;DHT22;7458;49.002;8.472;2023-03-15T14:41:31;9.20;99.90
14735;DHT22;7458;49.002;8.472;2023-03-15T14:44:01;9.20;99.90
14735;DHT22;7458;49.002;8.472;2023-03-15T14:46:30;9.00;99.90
14735;DHT22;7458;49.002;8.472;2023-03-15T14:48:56;8.90;99.90
14735;DHT22;7458;49.002;8.472;2023-03-15T14:51:22;8.80;99.90
14735;DHT22;7458;49.002;8.472;2023-03-15T14:53:53;8.80;99.90
14735;DHT22;7458;49.002;8.472;2023-03-15T14:56:23;8.80;99.90
14735;DHT22;7458;49.002;8.472;2023-03-15T14:58:49;8.90;99.90
14735;DHT22;7458;49.002;8.472;2023-03-15T15:01:19;8.90;99.90
14735;DHT22;7458;49.002;8.472;2023-03-15T15:03:55;8.90;99.90
14735;DHT22;7458;49.002;8.472;2023-03-15T15:06:26;8.90;99.90
14735;DHT22;7458;49.002;8.472;2023-03-15T15:08:55;8.80;99.90
14735;DHT22;7458;49.002;8.472;2023-03-15T15:11:23;8.80;99.90
14735;DHT22;7458;49.002;8.472;2023-03-15T15:13:53;8.80;99.90
14735;DHT22;7458;49.002;8.472;2023-03-15T15:16:19;8.70;99.90
14735;DHT22;7458;49.002;8.472;2023-03-15T15:18:45;8.70;99.90
14735;DHT22;7458;49.002;8.472;2023-03-15T15:21:20;8.70;99.90
14735;DHT22;7458;49.002;8.472;2023-03-15T15:23:53;8.80;99.90
14735;DHT22;7458;49.002;8.472;2023-03-15T15:26:21;8.70;99.90
14735;DHT22;7458;49.002;8.472;2023-03-15T15:28:51;8.70;99.90
14735;DHT22;7458;49.002;8.472;2023-03-15T15:31:22;8.70;99.90
14735;DHT22;7458;49.002;8.472;2023-03-15T15:33:53;8.80;99.90
14735;DHT22;7458;49.002;8.472;2023-03-15T15:36:25;8.70;99.90
14735;DHT22;7458;49.002;8.472;2023-03-15T15:38:54;8.80;99.90
14735;DHT22;7458;49.002;8.472;2023-03-15T15:41:25;8.80;99.90
14735;DHT22;7458;49.002;8.472;2023-03-15T15:43:54;8.80;99.90
14735;DHT22;7458;49.002;8.472;2023-03-15T15:46:19;8.80;99.90
14735;DHT22;7458;49.002;8.472;2023-03-15T15:48:45;8.80;99.90
14735;DHT22;7458;49.002;8.472;2023-03-15T15:51:20;8.70;99.90
14735;DHT22;7458;49.002;8.472;2023-03-15T15:53:50;8.80;99.90
14735;DHT22;7458;49.002;8.472;2023-03-15T15:56:17;8.80;99.90
14735;DHT22;7458;49.002;8.472;2023-03-15T15:58:44;8.90;99.90
14735;DHT22;7458;49.002;8.472;2023-03-15T16:01:13;8.90;99.90
14735;DHT22;7458;49.002;8.472;2023-03-15T16:03:40;9.10;99.90
14735;DHT22;7458;49.002;8.472;2023-03-15T16:06:14;9.10;99.90
14735;DHT22;7458;49.002;8.472;2023-03-15T16:08:42;9.20;99.90
14735;DHT22;7458;49.002;8.472;2023-03-15T16:11:11;9.20;99.90
14735;DHT22;7458;49.002;8.472;2023-03-15T16:13:38;9.10;99.90
14735;DHT22;7458;49.002;8.472;2023-03-15T16:16:05;9.10;99.90
14735;DHT22;7458;49.002;8.472;2023-03-15T16:18:31;9.00;99.90
14735;DHT22;7458;49.002;8.472;2023-03-15T16:20:58;8.90;99.90
14735;DHT22;7458;49.002;8.472;2023-03-15T16:23:24;8.80;99.90
14735;DHT22;7458;49.002;8.472;2023-03-15T16:25:53;8.70;99.90
14735;DHT22;7458;49.002;8.472;2023-03-15T16:28:24;8.70;99.90
14735;DHT22;7458;49.002;8.472;2023-03-15T16:30:50;8.60;99.90
14735;DHT22;7458;49.002;8.472;2023-03-15T16:33:18;8.60;99.90
14735;DHT22;7458;49.002;8.472;2023-03-15T16:35:46;8.70;99.90
14735;DHT22;7458;49.002;8.472;2023-03-15T16:38:19;8.50;99.90
14735;DHT22;7458;49.002;8.472;2023-03-15T16:40:50;8.40;99.90
14735;DHT22;7458;49.002;8.472;2023-03-15T16:43:16;8.40;99.90
14735;DHT22;7458;49.002;8.472;2023-03-15T16:45:44;8.30;99.90
14735;DHT22;7458;49.002;8.472;2023-03-15T16:48:10;8.30;99.90
14735;DHT22;7458;49.002;8.472;2023-03-15T16:50:36;8.20;99.90
14735;DHT22;7458;49.002;8.472;2023-03-15T16:53:06;8.20;99.90
14735;DHT22;7458;49.002;8.472;2023-03-15T16:55:34;8.20;99.90
14735;DHT22;7458;49.002;8.472;2023-03-15T16:58:15;8.20;99.90
14735;DHT22;7458;49.002;8.472;2023-03-15T17:00:43;8.00;99.90
14735;DHT22;7458;49.002;8.472;2023-03-15T17:03:11;7.90;99.90
14735;DHT22;7458;49.002;8.472;2023-03-15T17:05:37;7.90;99.90
14735;DHT22;7458;49.002;8.472;2023-03-15T17:08:07;7.90;99.90
14735;DHT22;7458;49.002;8.472;2023-03-15T17:10:36;8.00;99.90
14735;DHT22;7458;49.002;8.472;2023-03-15T17:13:01;7.90;99.90
14735;DHT22;7458;49.002;8.472;2023-03-15T17:15:28;7.90;99.90
14735;DHT22;7458;49.002;8.472;2023-03-15T17:17:55;7.90;99.90
14735;DHT22;7458;49.002;8.472;2023-03-15T17:20:26;7.90;99.90
14735;DHT22;7458;49.002;8.472;2023-03-15T17:22:58;7.90;99.90
14735;DHT22;7458;49.002;8.472;2023-03-15T17:25:27;7.90;99.90
14735;DHT22;7458;49.002;8.472;2023-03-15T17:27:53;7.00;99.90
14735;DHT22;7458;49.002;8.472;2023-03-15T17:32:53;8.10;99.90
14735;DHT22;7458;49.002;8.472;2023-03-15T17:35:20;8.10;99.90
14735;DHT22;7458;49.002;8.472;2023-03-15T17:37:58;8.00;99.90
14735;DHT22;7458;49.002;8.472;2023-03-15T17:40:28;7.90;99.90
14735;DHT22;7458;49.002;8.472;2023-03-15T17:42:57;7.80;99.90
14735;DHT22;7458;49.002;8.472;2023-03-15T17:45:27;7.80;99.90
14735;DHT22;7458;49.002;8.472;2023-03-15T17:47:55;7.80;99.90
14735;DHT22;7458;49.002;8.472;2023-03-15T17:50:23;7.70;99.90
14735;DHT22;7458;49.002;8.472;2023-03-15T17:52:56;7.70;99.90
14735;DHT22;7458;49.002;8.472;2023-03-15T17:55:26;7.70;99.90
14735;DHT22;7458;49.002;8.472;2023-03-15T17:57:53;7.70;99.90
14735;DHT22;7458;49.002;8.472;2023-03-15T18:00:20;7.60;99.90
14735;DHT22;7458;49.002;8.472;2023-03-15T18:02:48;7.60;99.90